Wonder Lake, Illinois
Current Conditions -  °F | °C
As of 1:35 AM on Friday 19 Dec 2014 (Local Time) from KBUU Reporting Station
Overcast Overcast  
Wind Chill: 25°   Ceiling: 1800
Heat Index: 25°   Visibility: 10mi
Dew Point: 21°   Wind: 3mph
Humidity: 83%   Direction: 310°NW
Pressure: 30.27"   Gusts: NA
Location:  42.39°N, 88.35°W
Report Text: KBUU 190735Z AUTO 31003KT 10SM OVC018 M04/M06 A3027 RMK AO2 T10381063
Loading
Personal Weather Stations






























Interactive Weather Map New forecast layout! Learn more

10-Day Weather Forecast

Advertisements
Track Severe Weather on mobile